Time;durP1;ratioP1;P1;durP2;ratioP2;P2;SDS_P1;SDS_P2;PMS_P1;PMS_P2;Temp;Humidity;BMP_temperature;BMP_pressure;BME280_temperature;BME280_humidity;BME280_pressure;Samples;Min_cycle;Max_cycle;Signal;HPM_P1;HPM_P2
2022/11/09 00:02:13;;;;;;;;;;;13.00;99.90;;;;;;5027688;28;19921;-82
2022/11/09 00:04:39;;;;;;;;;;;13.20;99.90;;;;;;5042054;28;20019;-81
2022/11/09 00:07:05;;;;;;;;;;;13.20;99.90;;;;;;5010020;28;19921;-82
2022/11/09 00:09:30;;;;;;;;;;;13.20;99.90;;;;;;5026770;28;19967;-82
2022/11/09 00:11:56;;;;;;;;;;;13.20;99.90;;;;;;5046046;28;19929;-82
2022/11/09 00:14:21;;;;;;;;;;;13.30;99.90;;;;;;5027423;28;21047;-82
2022/11/09 00:16:47;;;;;;;;;;;13.20;99.90;;;;;;5028703;28;19925;-82
2022/11/09 00:19:12;;;;;;;;;;;13.20;99.90;;;;;;5043203;28;19920;-82
2022/11/09 00:21:38;;;;;;;;;;;13.20;99.90;;;;;;5027476;28;19921;-82
2022/11/09 00:24:04;;;;;;;;;;;13.10;99.90;;;;;;5044470;28;19921;-82
2022/11/09 00:26:30;;;;;;;;;;;13.10;99.90;;;;;;5027724;28;19978;-81
2022/11/09 00:28:55;;;;;;;;;;;13.10;99.90;;;;;;5029049;28;19928;-82
2022/11/09 00:31:22;;;;;;;;;;;13.10;99.90;;;;;;5043293;28;19989;-82
2022/11/09 00:33:48;;;;;;;;;;;13.10;99.90;;;;;;5011149;28;20331;-82
2022/11/09 00:36:14;;;;;;;;;;;13.10;99.90;;;;;;5026172;28;19925;-82
2022/11/09 00:38:39;;;;;;;;;;;13.10;99.90;;;;;;5028578;28;20039;-82
2022/11/09 00:41:06;;;;;;;;;;;13.20;99.90;;;;;;5042352;28;19958;-82
2022/11/09 00:43:32;;;;;;;;;;;13.20;99.90;;;;;;5027699;28;19952;-82
2022/11/09 00:45:58;;;;;;;;;;;13.10;99.90;;;;;;5044803;28;20329;-82
2022/11/09 00:48:23;;;;;;;;;;;13.10;99.90;;;;;;5044367;28;19950;-81
2022/11/09 00:50:53;;;;;;;;;;;13.10;99.90;;;;;;5028319;28;19943;-81
2022/11/09 00:53:19;;;;;;;;;;;13.10;99.90;;;;;;5044944;28;19925;-82
2022/11/09 00:55:54;;;;;;;;;;;13.10;99.90;;;;;;5028284;28;19997;-81
2022/11/09 00:58:20;;;;;;;;;;;13.10;99.90;;;;;;5044678;28;19929;-81
2022/11/09 01:00:45;;;;;;;;;;;13.00;99.90;;;;;;5028393;28;19921;-81
2022/11/09 01:03:11;;;;;;;;;;;13.00;99.90;;;;;;5047567;28;20289;-81
2022/11/09 01:05:38;;;;;;;;;;;13.00;99.90;;;;;;5030351;28;19925;-82
2022/11/09 01:08:04;;;;;;;;;;;13.00;99.90;;;;;;5046615;28;19975;-82
2022/11/09 01:10:30;;;;;;;;;;;13.10;99.90;;;;;;5043717;28;20432;-81
2022/11/09 01:12:55;;;;;;;;;;;13.10;99.90;;;;;;5030561;28;19929;-82
2022/11/09 01:15:21;;;;;;;;;;;13.10;99.90;;;;;;5014768;28;19929;-82
2022/11/09 01:17:46;;;;;;;;;;;13.20;99.90;;;;;;5032488;28;20321;-82
2022/11/09 01:20:13;;;;;;;;;;;13.20;99.90;;;;;;5031302;28;19936;-82
2022/11/09 01:22:39;;;;;;;;;;;13.20;99.90;;;;;;5044310;28;19928;-82
2022/11/09 01:25:05;;;;;;;;;;;13.20;99.90;;;;;;5047501;28;19920;-81
2022/11/09 01:27:31;;;;;;;;;;;13.30;99.90;;;;;;5013725;28;19986;-82
2022/11/09 01:29:57;;;;;;;;;;;13.30;99.90;;;;;;5029392;28;19921;-82
2022/11/09 01:32:22;;;;;;;;;;;13.20;99.90;;;;;;5047194;28;19925;-82
2022/11/09 01:34:48;;;;;;;;;;;13.20;99.90;;;;;;5047544;28;19936;-81
2022/11/09 01:37:13;;;;;;;;;;;13.20;99.90;;;;;;5045024;28;19921;-82
2022/11/09 01:39:39;;;;;;;;;;;13.20;99.90;;;;;;5030112;28;19922;-81
2022/11/09 01:42:05;;;;;;;;;;;13.20;99.90;;;;;;5028689;28;19968;-82
2022/11/09 01:44:30;;;;;;;;;;;13.20;99.90;;;;;;5030724;28;20016;-82
2022/11/09 01:46:58;;;;;;;;;;;13.10;99.90;;;;;;5030127;28;19925;-82
2022/11/09 01:49:42;;;;;;;;;;;13.10;99.90;;;;;;5028965;28;20410;-82
2022/11/09 01:52:12;;;;;;;;;;;13.10;99.90;;;;;;5029545;28;19925;-82
2022/11/09 01:54:40;;;;;;;;;;;13.10;99.90;;;;;;5046451;28;19928;-81
2022/11/09 01:57:09;;;;;;;;;;;13.10;99.90;;;;;;5045347;28;20023;-81
2022/11/09 01:59:38;;;;;;;;;;;13.10;99.90;;;;;;5047029;28;19927;-81
2022/11/09 02:02:04;;;;;;;;;;;13.00;99.90;;;;;;5029639;28;19928;-81
2022/11/09 02:04:32;;;;;;;;;;;13.00;99.90;;;;;;5047872;28;19920;-82
2022/11/09 02:06:58;;;;;;;;;;;13.00;99.90;;;;;;5046297;28;19921;-82
2022/11/09 02:09:26;;;;;;;;;;;13.00;99.90;;;;;;5028384;28;19925;-81
2022/11/09 02:11:52;;;;;;;;;;;13.00;99.90;;;;;;5028690;28;20115;-82
2022/11/09 02:14:19;;;;;;;;;;;13.00;99.90;;;;;;5029699;28;19921;-81
2022/11/09 02:16:45;;;;;;;;;;;12.90;99.90;;;;;;5028808;28;20347;-82
2022/11/09 02:19:11;;;;;;;;;;;12.90;99.90;;;;;;5012928;28;19925;-82
2022/11/09 02:21:36;;;;;;;;;;;12.80;99.90;;;;;;5025168;28;20558;-82
2022/11/09 02:24:02;;;;;;;;;;;12.80;99.90;;;;;;5045249;28;19921;-82
2022/11/09 02:26:33;;;;;;;;;;;12.80;99.90;;;;;;5030696;28;20015;-81
2022/11/09 02:29:00;;;;;;;;;;;12.80;99.90;;;;;;5044903;28;19971;-82
2022/11/09 02:31:29;;;;;;;;;;;12.70;99.90;;;;;;5024535;28;19928;-82
2022/11/09 02:33:58;;;;;;;;;;;12.70;99.90;;;;;;5045629;28;20155;-82
2022/11/09 02:36:24;;;;;;;;;;;12.80;99.90;;;;;;5027147;28;20007;-82
2022/11/09 02:38:51;;;;;;;;;;;12.80;99.90;;;;;;5014997;28;20646;-82
2022/11/09 02:41:17;;;;;;;;;;;12.80;99.90;;;;;;5025535;28;19929;-82
2022/11/09 02:43:43;;;;;;;;;;;12.80;99.90;;;;;;5029441;28;20738;-82
2022/11/09 02:46:09;;;;;;;;;;;12.80;99.90;;;;;;5045028;28;19924;-82
2022/11/09 02:48:34;;;;;;;;;;;12.80;99.90;;;;;;5012036;28;19979;-82
2022/11/09 02:51:00;;;;;;;;;;;12.80;99.90;;;;;;5026821;28;19921;-82
2022/11/09 02:53:25;;;;;;;;;;;12.80;99.90;;;;;;5043689;28;19928;-81
2022/11/09 02:55:51;;;;;;;;;;;12.70;99.90;;;;;;5028407;28;20011;-82
2022/11/09 02:58:16;;;;;;;;;;;12.70;99.90;;;;;;5044433;28;19935;-81
2022/11/09 03:00:42;;;;;;;;;;;12.70;99.90;;;;;;5028610;28;20348;-82
2022/11/09 03:03:07;;;;;;;;;;;12.60;99.90;;;;;;5029318;28;19921;-81
2022/11/09 03:05:33;;;;;;;;;;;12.60;99.90;;;;;;5044089;28;19928;-81
2022/11/09 03:08:01;;;;;;;;;;;12.60;99.90;;;;;;5029849;28;19920;-82
2022/11/09 03:10:27;;;;;;;;;;;12.50;99.90;;;;;;5025178;28;19964;-82
2022/11/09 03:12:52;;;;;;;;;;;12.50;99.90;;;;;;5044860;28;19968;-81
2022/11/09 03:15:18;;;;;;;;;;;12.50;99.90;;;;;;5027585;28;19952;-82
2022/11/09 03:17:44;;;;;;;;;;;12.60;99.90;;;;;;5011133;28;20337;-82
2022/11/09 03:20:10;;;;;;;;;;;12.60;99.90;;;;;;5026896;28;19951;-82
2022/11/09 03:22:35;;;;;;;;;;;12.60;99.90;;;;;;5026092;28;20027;-82
2022/11/09 03:25:01;;;;;;;;;;;12.50;99.90;;;;;;5045571;28;19921;-82
2022/11/09 03:27:26;;;;;;;;;;;12.50;99.90;;;;;;5027603;28;19920;-82
2022/11/09 03:29:52;;;;;;;;;;;12.50;99.90;;;;;;5044268;28;19929;-82
2022/11/09 03:32:17;;;;;;;;;;;12.50;99.90;;;;;;5028800;28;20020;-82
2022/11/09 03:34:43;;;;;;;;;;;12.50;99.90;;;;;;5045331;28;19935;-82
2022/11/09 03:37:09;;;;;;;;;;;12.50;99.90;;;;;;5011321;28;19921;-82
2022/11/09 03:39:34;;;;;;;;;;;12.50;99.90;;;;;;5027143;28;19929;-82
2022/11/09 03:42:00;;;;;;;;;;;12.50;99.90;;;;;;5026507;28;19925;-82
2022/11/09 03:44:25;;;;;;;;;;;12.50;99.90;;;;;;5027917;28;19932;-82
2022/11/09 03:46:51;;;;;;;;;;;12.50;99.90;;;;;;5028489;28;19920;-82
2022/11/09 03:49:17;;;;;;;;;;;12.40;99.90;;;;;;5042513;28;19972;-82
2022/11/09 03:51:42;;;;;;;;;;;12.40;99.90;;;;;;5044161;28;20553;-82
2022/11/09 03:54:08;;;;;;;;;;;12.40;99.90;;;;;;5026785;28;19928;-82
2022/11/09 03:56:33;;;;;;;;;;;12.40;99.90;;;;;;5044800;28;19989;-82
2022/11/09 03:58:59;;;;;;;;;;;12.40;99.90;;;;;;5046359;28;20271;-82
2022/11/09 04:01:25;;;;;;;;;;;12.30;99.90;;;;;;5028632;28;21202;-82
2022/11/09 04:03:50;;;;;;;;;;;12.30;99.90;;;;;;5043623;28;19924;-82
2022/11/09 04:06:16;;;;;;;;;;;12.30;99.90;;;;;;5026617;28;19921;-82
2022/11/09 04:08:41;;;;;;;;;;;12.30;99.90;;;;;;5026611;28;19929;-82
2022/11/09 04:11:07;;;;;;;;;;;12.40;99.90;;;;;;5025850;28;19920;-82
2022/11/09 04:13:32;;;;;;;;;;;12.40;99.90;;;;;;5027520;28;20231;-82
2022/11/09 04:15:58;;;;;;;;;;;12.40;99.90;;;;;;5026756;28;19956;-82
2022/11/09 04:18:23;;;;;;;;;;;12.50;99.90;;;;;;5043650;28;20309;-82
2022/11/09 04:20:49;;;;;;;;;;;12.50;99.90;;;;;;5043752;28;19920;-82
2022/11/09 04:23:14;;;;;;;;;;;12.50;99.90;;;;;;5027408;28;19921;-82
2022/11/09 04:25:41;;;;;;;;;;;12.50;99.90;;;;;;5043992;28;20007;-82
2022/11/09 04:28:07;;;;;;;;;;;12.50;99.90;;;;;;5044060;28;19929;-82
2022/11/09 04:30:33;;;;;;;;;;;12.50;99.90;;;;;;5027444;28;19922;-82
2022/11/09 04:32:59;;;;;;;;;;;12.50;99.90;;;;;;5046259;28;19929;-82
2022/11/09 04:35:26;;;;;;;;;;;12.60;99.90;;;;;;5029081;28;19928;-82
2022/11/09 04:37:59;;;;;;;;;;;12.60;99.90;;;;;;5048645;28;19921;-82
2022/11/09 04:40:26;;;;;;;;;;;12.60;99.90;;;;;;5041901;28;20328;-82
2022/11/09 04:42:51;;;;;;;;;;;12.60;99.90;;;;;;5046561;28;19968;-82
2022/11/09 04:45:17;;;;;;;;;;;12.50;99.90;;;;;;5047332;28;20010;-82
2022/11/09 04:47:43;;;;;;;;;;;12.50;99.90;;;;;;5031792;28;19927;-82
2022/11/09 04:50:09;;;;;;;;;;;12.50;99.90;;;;;;5031227;28;19929;-82
2022/11/09 04:52:34;;;;;;;;;;;12.50;99.90;;;;;;5064505;28;20432;-81
2022/11/09 04:55:00;;;;;;;;;;;12.50;99.90;;;;;;5048255;28;20003;-82
2022/11/09 04:57:26;;;;;;;;;;;12.50;99.90;;;;;;5047137;28;20379;-82
2022/11/09 04:59:52;;;;;;;;;;;12.50;99.90;;;;;;5031418;28;20362;-82
2022/11/09 05:02:17;;;;;;;;;;;12.50;99.90;;;;;;5046426;28;19925;-82
2022/11/09 05:04:43;;;;;;;;;;;12.50;99.90;;;;;;5047377;28;20004;-82
2022/11/09 05:07:08;;;;;;;;;;;12.50;99.90;;;;;;5028673;28;19928;-82
2022/11/09 05:09:34;;;;;;;;;;;12.50;99.90;;;;;;5030148;28;19921;-82
2022/11/09 05:11:59;;;;;;;;;;;12.40;99.90;;;;;;5030276;28;19932;-82
2022/11/09 05:14:25;;;;;;;;;;;12.40;99.90;;;;;;5014194;28;19920;-82
2022/11/09 05:16:50;;;;;;;;;;;12.40;99.90;;;;;;5044570;28;19944;-82
2022/11/09 05:19:16;;;;;;;;;;;12.40;99.90;;;;;;5048384;28;19943;-82
2022/11/09 05:21:41;;;;;;;;;;;12.40;99.90;;;;;;5030654;28;19927;-82
2022/11/09 05:24:07;;;;;;;;;;;12.40;99.90;;;;;;5047058;28;21178;-82
2022/11/09 05:26:35;;;;;;;;;;;12.40;99.90;;;;;;5043746;28;19924;-82
2022/11/09 05:29:02;;;;;;;;;;;12.30;99.90;;;;;;5047229;28;19934;-82
2022/11/09 05:31:28;;;;;;;;;;;12.30;99.90;;;;;;5044984;28;19948;-82
2022/11/09 05:33:54;;;;;;;;;;;12.30;99.90;;;;;;5046212;28;19933;-81
2022/11/09 05:36:20;;;;;;;;;;;12.30;99.90;;;;;;5048470;28;20293;-80
2022/11/09 05:38:45;;;;;;;;;;;12.30;99.90;;;;;;5029776;28;19964;-82
2022/11/09 05:41:11;;;;;;;;;;;12.30;99.90;;;;;;5022219;28;19933;-82
2022/11/09 05:43:37;;;;;;;;;;;12.20;99.90;;;;;;5030531;28;19941;-82
2022/11/09 05:46:03;;;;;;;;;;;12.20;99.90;;;;;;5030678;28;19927;-82
2022/11/09 05:48:28;;;;;;;;;;;12.30;99.90;;;;;;5047138;28;19943;-82
2022/11/09 05:50:54;;;;;;;;;;;12.30;99.90;;;;;;5029550;28;19927;-82
2022/11/09 05:53:19;;;;;;;;;;;12.20;99.90;;;;;;5029245;28;19932;-82
2022/11/09 05:55:45;;;;;;;;;;;12.30;99.90;;;;;;5027512;28;20000;-82
2022/11/09 05:58:11;;;;;;;;;;;12.30;99.90;;;;;;5046848;28;19924;-82
2022/11/09 06:00:36;;;;;;;;;;;12.30;99.90;;;;;;5045164;28;19925;-82
2022/11/09 06:03:09;;;;;;;;;;;12.30;99.90;;;;;;5030620;28;19924;-82
2022/11/09 06:05:35;;;;;;;;;;;12.30;99.90;;;;;;5044176;28;19920;-82
2022/11/09 06:08:02;;;;;;;;;;;12.20;99.90;;;;;;5044387;28;19921;-82
2022/11/09 06:10:27;;;;;;;;;;;12.20;99.90;;;;;;5007938;28;20416;-82
2022/11/09 06:12:53;;;;;;;;;;;12.20;99.90;;;;;;5029461;28;19932;-82
2022/11/09 06:15:19;;;;;;;;;;;12.10;99.90;;;;;;5044404;28;19925;-82
2022/11/09 06:17:49;;;;;;;;;;;12.10;99.90;;;;;;5031274;28;19920;-82
2022/11/09 06:20:15;;;;;;;;;;;12.10;99.90;;;;;;5045337;28;19928;-82
2022/11/09 06:22:40;;;;;;;;;;;12.10;99.90;;;;;;5013860;28;19921;-82
2022/11/09 06:25:06;;;;;;;;;;;12.00;99.90;;;;;;5013644;28;19963;-82
2022/11/09 06:27:32;;;;;;;;;;;12.10;99.90;;;;;;5029174;28;19921;-82
2022/11/09 06:29:57;;;;;;;;;;;12.00;99.90;;;;;;5027086;28;19929;-82
2022/11/09 06:32:23;;;;;;;;;;;12.00;99.90;;;;;;5005763;28;19968;-82
2022/11/09 06:34:48;;;;;;;;;;;12.00;99.90;;;;;;5009948;28;19940;-82
2022/11/09 06:37:16;;;;;;;;;;;11.90;99.90;;;;;;5030834;28;19928;-82
2022/11/09 06:39:43;;;;;;;;;;;11.90;99.90;;;;;;5036943;28;20287;-82
2022/11/09 06:42:08;;;;;;;;;;;11.90;99.90;;;;;;5024674;28;19935;-82
2022/11/09 06:44:34;;;;;;;;;;;11.80;99.90;;;;;;5027262;28;19921;-83
2022/11/09 06:46:59;;;;;;;;;;;11.90;99.90;;;;;;5028045;28;19928;-85
2022/11/09 06:49:25;;;;;;;;;;;11.80;99.90;;;;;;5026436;28;19928;-84
2022/11/09 06:51:51;;;;;;;;;;;11.80;99.90;;;;;;4998381;28;19928;-84
2022/11/09 06:54:17;;;;;;;;;;;11.80;99.90;;;;;;5015150;28;20016;-84
2022/11/09 06:56:42;;;;;;;;;;;11.80;99.90;;;;;;4998041;28;19932;-83
2022/11/09 06:59:08;;;;;;;;;;;11.80;99.90;;;;;;5015651;28;19929;-82
2022/11/09 07:01:33;;;;;;;;;;;11.80;99.90;;;;;;5030119;28;19944;-82
2022/11/09 07:03:59;;;;;;;;;;;11.80;99.90;;;;;;5023387;28;19933;-82
2022/11/09 07:06:24;;;;;;;;;;;11.80;99.90;;;;;;4997052;28;19929;-81
2022/11/09 07:08:54;;;;;;;;;;;11.70;99.90;;;;;;5032844;28;19929;-83
2022/11/09 07:11:19;;;;;;;;;;;11.80;99.90;;;;;;5019618;28;20013;-83
2022/11/09 07:13:47;;;;;;;;;;;11.80;99.90;;;;;;5035154;28;19932;-82
2022/11/09 07:16:16;;;;;;;;;;;11.70;99.90;;;;;;5032350;28;19955;-82
2022/11/09 07:18:43;;;;;;;;;;;11.70;99.90;;;;;;5018700;28;19929;-82
2022/11/09 07:21:08;;;;;;;;;;;11.70;99.90;;;;;;5017095;28;19955;-82
2022/11/09 07:23:34;;;;;;;;;;;11.80;99.90;;;;;;5000857;28;20020;-82
2022/11/09 07:25:59;;;;;;;;;;;11.70;99.90;;;;;;5032872;28;19967;-82
2022/11/09 07:28:25;;;;;;;;;;;11.80;99.90;;;;;;4998384;28;19924;-82
2022/11/09 07:30:51;;;;;;;;;;;11.70;99.90;;;;;;5012700;28;20796;-82
2022/11/09 07:33:17;;;;;;;;;;;11.70;99.90;;;;;;5024368;28;19931;-82
2022/11/09 07:35:43;;;;;;;;;;;11.70;99.90;;;;;;5007025;28;19928;-82
2022/11/09 07:38:09;;;;;;;;;;;11.70;99.90;;;;;;5029652;28;19956;-82
2022/11/09 07:40:34;;;;;;;;;;;11.80;99.90;;;;;;5046252;28;19921;-82
2022/11/09 07:43:01;;;;;;;;;;;11.80;99.90;;;;;;5033776;28;20012;-82
2022/11/09 07:45:27;;;;;;;;;;;11.90;99.90;;;;;;5016979;28;19935;-82
2022/11/09 07:47:57;;;;;;;;;;;11.90;99.90;;;;;;5021574;28;20015;-82
2022/11/09 07:50:23;;;;;;;;;;;12.00;99.90;;;;;;5015621;28;19929;-82
2022/11/09 07:52:48;;;;;;;;;;;12.00;99.90;;;;;;5028728;28;20477;-82
2022/11/09 07:55:14;;;;;;;;;;;12.10;99.90;;;;;;5048537;28;19932;-82
2022/11/09 07:57:39;;;;;;;;;;;12.10;99.90;;;;;;5033710;28;20293;-82
2022/11/09 08:00:05;;;;;;;;;;;12.20;99.90;;;;;;5031509;28;19921;-82
2022/11/09 08:02:31;;;;;;;;;;;12.10;99.90;;;;;;5038213;28;19920;-82
2022/11/09 08:04:56;;;;;;;;;;;12.10;99.90;;;;;;5046159;28;20019;-81
2022/11/09 08:07:22;;;;;;;;;;;12.10;99.90;;;;;;5050007;28;19929;-81
2022/11/09 08:09:48;;;;;;;;;;;12.10;99.90;;;;;;5031398;28;19921;-81
2022/11/09 08:12:13;;;;;;;;;;;12.00;99.90;;;;;;5031225;28;20461;-81
2022/11/09 08:14:39;;;;;;;;;;;12.10;99.90;;;;;;5016858;28;19943;-81
2022/11/09 08:17:04;;;;;;;;;;;12.00;99.90;;;;;;5051969;28;19927;-81
2022/11/09 08:19:30;;;;;;;;;;;12.00;99.90;;;;;;5052042;28;20455;-80
2022/11/09 08:21:56;;;;;;;;;;;12.00;99.90;;;;;;5051722;28;19986;-82
2022/11/09 08:24:22;;;;;;;;;;;12.10;99.90;;;;;;5032264;28;19920;-81
2022/11/09 08:26:48;;;;;;;;;;;12.10;99.90;;;;;;5041182;28;19982;-80
2022/11/09 08:29:14;;;;;;;;;;;12.10;99.90;;;;;;5018983;28;20515;-80
2022/11/09 08:31:40;;;;;;;;;;;12.20;99.90;;;;;;5014610;28;19925;-81
2022/11/09 08:34:09;;;;;;;;;;;12.10;99.90;;;;;;5035677;28;19933;-81
2022/11/09 08:36:35;;;;;;;;;;;12.20;99.90;;;;;;5051804;28;20034;-81
2022/11/09 08:39:00;;;;;;;;;;;12.30;99.90;;;;;;5017222;28;20593;-81
2022/11/09 08:41:27;;;;;;;;;;;12.50;99.90;;;;;;5049794;28;20512;-81
2022/11/09 08:43:52;;;;;;;;;;;12.80;99.90;;;;;;5049244;28;19921;-81
2022/11/09 08:46:18;;;;;;;;;;;13.00;99.90;;;;;;5033647;28;20066;-81
2022/11/09 08:48:43;;;;;;;;;;;13.00;99.90;;;;;;5044424;28;19928;-81
2022/11/09 08:51:09;;;;;;;;;;;12.90;99.90;;;;;;5049594;28;19924;-81
2022/11/09 08:53:34;;;;;;;;;;;12.90;99.90;;;;;;5040334;28;19925;-81
2022/11/09 08:56:00;;;;;;;;;;;12.80;99.90;;;;;;5032068;28;19972;-81
2022/11/09 08:58:26;;;;;;;;;;;12.70;99.90;;;;;;5049361;28;20408;-81
2022/11/09 09:00:51;;;;;;;;;;;12.70;99.90;;;;;;5049826;28;19932;-81
2022/11/09 09:03:17;;;;;;;;;;;12.70;99.90;;;;;;5051113;28;19924;-81
2022/11/09 09:05:42;;;;;;;;;;;12.70;99.90;;;;;;5046974;28;19924;-81
2022/11/09 09:08:10;;;;;;;;;;;12.70;99.90;;;;;;5007366;28;19925;-81
2022/11/09 09:10:36;;;;;;;;;;;12.70;99.90;;;;;;5032560;28;19921;-80
2022/11/09 09:13:03;;;;;;;;;;;12.70;99.90;;;;;;5033333;28;19979;-81
2022/11/09 09:15:29;;;;;;;;;;;12.70;99.90;;;;;;5049530;28;20305;-81
2022/11/09 09:17:54;;;;;;;;;;;12.80;99.90;;;;;;5048900;28;19968;-81
2022/11/09 09:20:20;;;;;;;;;;;12.80;99.90;;;;;;5031806;28;19959;-81
2022/11/09 09:22:45;;;;;;;;;;;12.80;99.90;;;;;;5041231;28;19928;-81
2022/11/09 09:25:11;;;;;;;;;;;12.90;99.90;;;;;;5031447;28;19921;-81
2022/11/09 09:27:36;;;;;;;;;;;12.80;99.90;;;;;;5034257;28;19925;-81
2022/11/09 09:30:02;;;;;;;;;;;12.80;99.90;;;;;;5039367;28;19952;-81
2022/11/09 09:32:28;;;;;;;;;;;12.80;99.90;;;;;;5048457;28;19933;-81
2022/11/09 09:34:54;;;;;;;;;;;12.90;99.90;;;;;;5042567;28;19929;-81
2022/11/09 09:37:20;;;;;;;;;;;12.90;99.90;;;;;;5032098;28;19936;-81
2022/11/09 09:39:46;;;;;;;;;;;13.00;99.90;;;;;;5050390;28;19986;-81
2022/11/09 09:42:20;;;;;;;;;;;13.10;99.90;;;;;;5048173;28;19968;-81
2022/11/09 09:44:55;;;;;;;;;;;13.10;99.90;;;;;;5033650;28;19964;-81
2022/11/09 09:47:36;;;;;;;;;;;13.20;99.90;;;;;;5050380;28;19921;-81
2022/11/09 09:50:10;;;;;;;;;;;13.20;99.90;;;;;;5035695;28;19982;-81
2022/11/09 09:52:38;;;;;;;;;;;13.30;99.90;;;;;;5048600;28;19924;-81
2022/11/09 09:55:04;;;;;;;;;;;13.30;99.90;;;;;;5033624;28;19955;-81
2022/11/09 09:57:30;;;;;;;;;;;13.30;99.90;;;;;;5043130;28;20385;-81
2022/11/09 09:59:58;;;;;;;;;;;13.30;99.90;;;;;;5047789;28;19937;-81
2022/11/09 10:02:25;;;;;;;;;;;13.30;99.90;;;;;;5028905;28;19979;-81
2022/11/09 10:04:51;;;;;;;;;;;13.20;99.90;;;;;;5044383;28;19928;-81
2022/11/09 10:07:27;;;;;;;;;;;13.20;99.90;;;;;;5050349;28;19998;-81
2022/11/09 10:10:08;;;;;;;;;;;13.20;99.90;;;;;;5033748;28;19986;-81
2022/11/09 10:12:40;;;;;;;;;;;13.20;99.90;;;;;;5049786;28;19925;-81
2022/11/09 10:15:09;;;;;;;;;;;13.20;99.90;;;;;;5049983;28;19962;-81
2022/11/09 10:17:53;;;;;;;;;;;13.30;99.90;;;;;;5045242;28;19925;-81
2022/11/09 10:20:38;;;;;;;;;;;13.30;99.90;;;;;;5033234;28;19925;-81
2022/11/09 10:23:09;;;;;;;;;;;13.30;99.90;;;;;;5049505;28;19982;-81
2022/11/09 10:25:36;;;;;;;;;;;13.30;99.90;;;;;;5049559;28;20433;-81
2022/11/09 10:28:03;;;;;;;;;;;13.30;99.90;;;;;;5032880;28;19920;-80
2022/11/09 10:30:29;;;;;;;;;;;13.40;99.90;;;;;;5036811;28;19925;-81
2022/11/09 10:32:58;;;;;;;;;;;13.40;99.90;;;;;;5044524;28;19931;-81
2022/11/09 10:35:29;;;;;;;;;;;13.40;99.90;;;;;;5033019;28;20314;-81
2022/11/09 10:37:54;;;;;;;;;;;13.40;99.90;;;;;;5033052;28;19935;-81
2022/11/09 10:40:20;;;;;;;;;;;13.40;99.90;;;;;;5043357;28;20011;-81
2022/11/09 10:42:56;;;;;;;;;;;13.50;99.90;;;;;;5049389;28;19924;-81
2022/11/09 10:45:29;;;;;;;;;;;13.40;99.90;;;;;;5049106;28;20370;-81
2022/11/09 10:47:55;;;;;;;;;;;13.50;99.90;;;;;;5046574;28;20443;-81
2022/11/09 10:50:24;;;;;;;;;;;13.50;99.90;;;;;;5013671;28;19925;-81
2022/11/09 10:52:49;;;;;;;;;;;13.50;99.90;;;;;;5050526;28;19951;-81
2022/11/09 10:55:23;;;;;;;;;;;13.50;99.90;;;;;;5047387;28;19921;-82
2022/11/09 10:57:49;;;;;;;;;;;13.40;99.90;;;;;;5043347;28;19921;-82
2022/11/09 11:00:18;;;;;;;;;;;13.50;99.90;;;;;;5032419;28;19921;-82
2022/11/09 11:02:45;;;;;;;;;;;13.50;99.90;;;;;;5031528;28;19925;-82
2022/11/09 11:05:16;;;;;;;;;;;13.50;99.90;;;;;;5032385;28;19944;-81
2022/11/09 11:07:42;;;;;;;;;;;13.50;99.90;;;;;;5040986;28;19924;-82
2022/11/09 11:10:14;;;;;;;;;;;13.50;99.90;;;;;;5035574;28;20605;-82
2022/11/09 11:13:00;;;;;;;;;;;13.50;99.90;;;;;;5032256;28;20008;-82
2022/11/09 11:15:33;;;;;;;;;;;13.60;99.90;;;;;;5026094;28;19924;-83
2022/11/09 11:18:03;;;;;;;;;;;13.60;99.90;;;;;;5048794;28;20453;-82
2022/11/09 11:20:30;;;;;;;;;;;13.70;99.90;;;;;;5048835;28;19921;-82
2022/11/09 11:23:08;;;;;;;;;;;13.70;99.90;;;;;;5039232;28;19964;-83
2022/11/09 11:25:37;;;;;;;;;;;13.80;99.90;;;;;;5030270;28;20382;-83
2022/11/09 11:28:38;;;;;;;;;;;13.80;99.90;;;;;;5031509;28;19971;-83
2022/11/09 11:31:06;;;;;;;;;;;13.80;99.90;;;;;;4990618;28;19969;-84
2022/11/09 11:33:33;;;;;;;;;;;13.90;99.90;;;;;;5035006;28;19924;-83
2022/11/09 11:36:22;;;;;;;;;;;13.90;99.90;;;;;;5047081;28;19921;-82
2022/11/09 11:38:59;;;;;;;;;;;13.90;99.90;;;;;;5047407;28;19924;-83
2022/11/09 11:41:24;;;;;;;;;;;14.00;99.90;;;;;;5046439;28;19924;-83
2022/11/09 11:44:09;;;;;;;;;;;13.90;99.90;;;;;;5037788;28;20348;-83
2022/11/09 11:46:37;;;;;;;;;;;13.80;99.90;;;;;;5035220;28;19985;-83
2022/11/09 11:49:21;;;;;;;;;;;13.80;99.90;;;;;;5044476;28;19947;-83
2022/11/09 11:52:01;;;;;;;;;;;14.60;99.90;;;;;;5047603;28;19921;-86
2022/11/09 11:54:29;;;;;;;;;;;13.70;99.90;;;;;;5039821;28;19928;-84
2022/11/09 11:57:17;;;;;;;;;;;13.70;99.90;;;;;;5042907;28;19928;-85
2022/11/09 11:59:57;;;;;;;;;;;13.70;99.90;;;;;;5048526;28;20014;-84
2022/11/09 12:02:42;;;;;;;;;;;13.60;99.90;;;;;;5047564;28;19921;-85
2022/11/09 12:05:26;;;;;;;;;;;13.60;99.90;;;;;;5046842;28;19932;-84
2022/11/09 12:07:57;;;;;;;;;;;13.50;99.90;;;;;;5040788;28;19921;-85
2022/11/09 12:10:40;;;;;;;;;;;13.40;99.90;;;;;;5031096;28;19979;-85
2022/11/09 12:13:05;;;;;;;;;;;13.40;99.90;;;;;;5048183;28;19975;-85
2022/11/09 12:15:31;;;;;;;;;;;13.40;99.90;;;;;;5033912;28;19924;-83
2022/11/09 12:18:05;;;;;;;;;;;13.40;99.90;;;;;;5040631;28;19929;-83
2022/11/09 12:20:48;;;;;;;;;;;13.50;99.90;;;;;;5047893;28;20020;-83
2022/11/09 12:23:32;;;;;;;;;;;13.50;99.90;;;;;;5047616;28;19920;-84
2022/11/09 12:25:58;;;;;;;;;;;13.60;99.90;;;;;;5030409;28;19951;-82
2022/11/09 12:28:23;;;;;;;;;;;13.60;99.90;;;;;;5045849;28;19921;-83
2022/11/09 12:31:08;;;;;;;;;;;13.60;99.90;;;;;;5048254;28;20433;-83
2022/11/09 12:33:42;;;;;;;;;;;13.60;99.90;;;;;;5031376;28;19932;-83
2022/11/09 12:36:12;;;;;;;;;;;13.60;99.90;;;;;;5063498;28;19921;-83
2022/11/09 12:38:44;;;;;;;;;;;13.60;99.90;;;;;;5047857;28;20035;-83
2022/11/09 12:41:15;;;;;;;;;;;13.60;99.90;;;;;;5047320;28;19925;-83
2022/11/09 12:43:59;;;;;;;;;;;13.60;99.90;;;;;;5006482;28;19921;-83
2022/11/09 12:46:29;;;;;;;;;;;13.60;99.90;;;;;;4996498;28;19921;-83
2022/11/09 12:48:57;;;;;;;;;;;13.70;99.90;;;;;;5013833;28;19941;-83
2022/11/09 12:51:23;;;;;;;;;;;13.80;99.90;;;;;;4996553;28;19921;-83
2022/11/09 12:53:49;;;;;;;;;;;14.00;99.90;;;;;;5016786;28;20344;-84
2022/11/09 12:56:20;;;;;;;;;;;14.10;99.90;;;;;;5000908;28;20015;-83
2022/11/09 12:58:46;;;;;;;;;;;14.20;99.90;;;;;;4998256;28;20289;-83
2022/11/09 13:01:31;;;;;;;;;;;14.10;99.90;;;;;;5016909;28;20000;-83
2022/11/09 13:03:58;;;;;;;;;;;14.00;99.90;;;;;;5015080;28;20401;-83
2022/11/09 13:06:25;;;;;;;;;;;13.90;99.90;;;;;;5016269;28;19921;-83
2022/11/09 13:09:01;;;;;;;;;;;14.00;99.90;;;;;;5000661;28;19925;-83
2022/11/09 13:11:48;;;;;;;;;;;13.90;99.90;;;;;;4998799;28;19936;-84
2022/11/09 13:14:20;;;;;;;;;;;13.80;99.90;;;;;;5015203;28;20341;-84
2022/11/09 13:16:50;;;;;;;;;;;13.80;99.90;;;;;;5015647;28;19929;-84
2022/11/09 13:19:34;;;;;;;;;;;13.70;99.90;;;;;;5016257;28;19928;-84
2022/11/09 13:22:00;;;;;;;;;;;13.80;99.90;;;;;;5016839;28;19928;-84
2022/11/09 13:24:29;;;;;;;;;;;13.80;99.90;;;;;;5017099;28;19947;-84
2022/11/09 13:26:59;;;;;;;;;;;13.80;99.90;;;;;;4999382;28;19975;-84
2022/11/09 13:29:40;;;;;;;;;;;13.70;99.90;;;;;;4999800;28;19948;-84
2022/11/09 13:32:11;;;;;;;;;;;13.70;99.90;;;;;;5017128;28;20004;-83
2022/11/09 13:34:47;;;;;;;;;;;13.70;99.90;;;;;;4999101;28;20390;-83
2022/11/09 13:37:33;;;;;;;;;;;13.60;99.90;;;;;;5015672;28;20350;-83
2022/11/09 13:39:58;;;;;;;;;;;13.60;99.90;;;;;;5015070;28;20335;-83
2022/11/09 13:42:24;;;;;;;;;;;13.60;99.90;;;;;;4998391;28;20003;-83
2022/11/09 13:44:49;;;;;;;;;;;13.60;99.90;;;;;;5047127;28;19921;-83
2022/11/09 13:47:22;;;;;;;;;;;13.60;99.90;;;;;;5050346;28;19920;-83
2022/11/09 13:49:49;;;;;;;;;;;13.60;99.90;;;;;;5033874;28;19924;-83
2022/11/09 13:52:34;;;;;;;;;;;13.60;99.90;;;;;;5027414;28;19974;-83
2022/11/09 13:54:59;;;;;;;;;;;13.60;99.90;;;;;;5050379;28;19920;-83
2022/11/09 13:57:25;;;;;;;;;;;13.50;99.90;;;;;;5050357;28;19969;-82
2022/11/09 13:59:51;;;;;;;;;;;13.50;99.90;;;;;;5050516;28;19921;-83
2022/11/09 14:02:21;;;;;;;;;;;13.50;99.90;;;;;;5033264;28;20356;-82
2022/11/09 14:04:47;;;;;;;;;;;13.50;99.90;;;;;;5033574;28;19974;-82
2022/11/09 14:07:16;;;;;;;;;;;13.50;99.90;;;;;;5050088;28;20393;-83
2022/11/09 14:09:54;;;;;;;;;;;13.50;99.90;;;;;;5050162;28;19927;-83
2022/11/09 14:12:23;;;;;;;;;;;13.50;99.90;;;;;;5031047;28;19936;-83
2022/11/09 14:14:58;;;;;;;;;;;13.40;99.90;;;;;;5033544;28;20000;-84
2022/11/09 14:17:30;;;;;;;;;;;13.30;99.90;;;;;;5047825;28;20569;-83
2022/11/09 14:20:15;;;;;;;;;;;13.30;99.90;;;;;;5040225;28;20519;-83
2022/11/09 14:22:40;;;;;;;;;;;13.30;99.90;;;;;;5049610;28;19980;-83